Time;durP1;ratioP1;P1;durP2;ratioP2;P2;SDS_P1;SDS_P2;PMS_P1;PMS_P2;Temp;Humidity;BMP_temperature;BMP_pressure;BME280_temperature;BME280_humidity;BME280_pressure;Samples;Min_cycle;Max_cycle;Signal;HPM_P1;HPM_P2
2022/05/11 00:00:52;;;;;;;;;2.00;2.00;;;;;;;;5172920;28;8919;-68
2022/05/11 00:03:23;;;;;;;;;1.00;1.00;;;;;;;;5139960;28;8996;-69
2022/05/11 00:05:54;;;;;;;;;3.20;3.20;;;;;;;;5153077;28;8771;-68
2022/05/11 00:08:25;;;;;;;;;0.60;0.60;;;;;;;;5169311;28;8790;-68
2022/05/11 00:10:56;;;;;;;;;4.50;4.50;;;;;;;;5172955;28;8784;-68
2022/05/11 00:13:28;;;;;;;;;3.60;3.60;;;;;;;;5185517;28;8807;-68
2022/05/11 00:15:59;;;;;;;;;1.00;1.00;;;;;;;;5186356;28;9549;-69
2022/05/11 00:18:30;;;;;;;;;4.00;4.00;;;;;;;;5169018;28;8802;-68
2022/05/11 00:21:02;;;;;;;;;2.40;2.40;;;;;;;;5204704;28;8816;-69
2022/05/11 00:23:33;;;;;;;;;5.00;5.00;;;;;;;;5188758;28;8797;-68
2022/05/11 00:26:04;;;;;;;;;5.00;5.00;;;;;;;;5168703;28;8901;-68
2022/05/11 00:28:36;;;;;;;;;4.00;3.20;;;;;;;;5175976;28;8830;-68
2022/05/11 00:31:08;;;;;;;;;3.40;3.40;;;;;;;;5148707;28;8869;-68
2022/05/11 00:33:58;;;;;;;;;2.60;2.60;;;;;;;;5148611;28;8815;-68
2022/05/11 00:36:29;;;;;;;;;4.00;3.60;;;;;;;;5148515;28;8778;-68
2022/05/11 00:39:19;;;;;;;;;3.20;3.20;;;;;;;;5149158;28;8885;-68
2022/05/11 00:41:51;;;;;;;;;4.40;4.40;;;;;;;;5163635;28;8796;-68
2022/05/11 00:44:22;;;;;;;;;4.80;4.80;;;;;;;;5152591;28;8954;-69
2022/05/11 00:47:04;;;;;;;;;7.40;7.40;;;;;;;;5168516;28;9583;-68
2022/05/11 00:49:38;;;;;;;;;5.80;5.80;;;;;;;;5168446;28;8826;-68
2022/05/11 00:52:09;;;;;;;;;7.40;7.40;;;;;;;;5168275;28;9519;-67
2022/05/11 00:54:42;;;;;;;;;6.00;6.00;;;;;;;;5168100;28;8887;-68
2022/05/11 00:57:17;;;;;;;;;3.00;3.00;;;;;;;;5151703;28;8854;-67
2022/05/11 00:59:50;;;;;;;;;4.80;4.40;;;;;;;;5151795;28;8805;-68
2022/05/11 01:02:22;;;;;;;;;5.60;5.40;;;;;;;;5144636;28;8787;-67
2022/05/11 01:04:56;;;;;;;;;8.20;8.20;;;;;;;;5182639;28;8809;-67
2022/05/11 01:07:28;;;;;;;;;4.40;4.40;;;;;;;;5165643;28;8834;-67
2022/05/11 01:09:59;;;;;;;;;5.00;5.00;;;;;;;;5182298;28;8807;-67
2022/05/11 01:12:51;;;;;;;;;4.40;4.40;;;;;;;;5165806;28;8783;-67
2022/05/11 01:15:23;;;;;;;;;5.00;5.00;;;;;;;;5148677;28;8811;-67
2022/05/11 01:17:55;;;;;;;;;7.40;7.40;;;;;;;;5165975;28;8852;-67
2022/05/11 01:20:28;;;;;;;;;0.00;0.00;;;;;;;;5137703;28;8818;-67
2022/05/11 01:23:22;;;;;;;;;10.40;10.40;;;;;;;;5147733;28;8856;-67
2022/05/11 01:25:54;;;;;;;;;3.60;3.60;;;;;;;;5131410;28;8842;-67
2022/05/11 01:28:25;;;;;;;;;6.00;5.00;;;;;;;;5163753;28;9562;-67
2022/05/11 01:31:02;;;;;;;;;6.80;6.80;;;;;;;;5163618;28;8869;-68
2022/05/11 01:33:35;;;;;;;;;7.00;7.00;;;;;;;;5166003;28;8787;-68
2022/05/11 01:36:25;;;;;;;;;3.20;3.20;;;;;;;;5167522;28;8804;-67
2022/05/11 01:38:57;;;;;;;;;5.80;5.80;;;;;;;;5163587;28;8805;-67
2022/05/11 01:41:37;;;;;;;;;4.00;4.00;;;;;;;;5184766;28;9654;-67
2022/05/11 01:44:11;;;;;;;;;6.40;6.40;;;;;;;;5184126;28;8765;-66
2022/05/11 01:46:48;;;;;;;;;2.80;2.40;;;;;;;;5167155;28;8792;-66
2022/05/11 01:49:20;;;;;;;;;6.40;6.40;;;;;;;;5167419;28;8839;-66
2022/05/11 01:51:51;;;;;;;;;2.00;2.00;;;;;;;;5166716;28;8785;-67
2022/05/11 01:54:22;;;;;;;;;3.00;3.00;;;;;;;;5147127;28;8873;-67
2022/05/11 01:56:53;;;;;;;;;5.00;5.00;;;;;;;;5154360;28;8773;-66
2022/05/11 01:59:24;;;;;;;;;3.25;3.25;;;;;;;;5183428;28;9547;-67
2022/05/11 02:01:54;;;;;;;;;1.50;1.50;;;;;;;;5162801;28;8976;-67
2022/05/11 02:07:52;;;;;;;;;7.60;7.60;;;;;;;;5185270;28;8811;-67
2022/05/11 02:10:24;;;;;;;;;4.20;4.00;;;;;;;;5167181;28;8804;-67
2022/05/11 02:12:57;;;;;;;;;7.60;7.60;;;;;;;;5167065;28;8784;-67
2022/05/11 02:15:28;;;;;;;;;8.00;8.00;;;;;;;;5131030;28;8783;-66
2022/05/11 02:17:59;;;;;;;;;3.00;3.00;;;;;;;;5162936;28;8791;-67
2022/05/11 02:20:30;;;;;;;;;13.00;11.00;;;;;;;;5164282;28;8781;-67
2022/05/11 02:23:02;;;;;;;;;15.80;15.80;;;;;;;;5164175;28;8767;-66
2022/05/11 02:25:33;;;;;;;;;11.00;11.00;;;;;;;;5164579;28;8786;-67
2022/05/11 02:28:04;;;;;;;;;16.20;15.20;;;;;;;;5184595;28;8825;-67
2022/05/11 02:30:35;;;;;;;;;5.00;5.00;;;;;;;;5160300;28;9579;-67
2022/05/11 02:33:06;;;;;;;;;5.60;5.60;;;;;;;;5186756;28;11412;-67
2022/05/11 02:35:37;;;;;;;;;4.00;4.00;;;;;;;;5182265;28;8862;-68
2022/05/11 02:38:10;;;;;;;;;8.40;8.40;;;;;;;;5182833;28;8807;-67
2022/05/11 02:40:42;;;;;;;;;7.00;7.00;;;;;;;;5184363;28;8787;-67
2022/05/11 02:43:13;;;;;;;;;5.40;5.40;;;;;;;;5166829;28;8929;-67
2022/05/11 02:45:45;;;;;;;;;2.60;2.60;;;;;;;;5186118;28;8783;-67
2022/05/11 02:48:35;;;;;;;;;7.60;7.60;;;;;;;;5191313;28;8935;-68
2022/05/11 02:51:06;;;;;;;;;8.00;8.00;;;;;;;;5190328;28;8823;-68
2022/05/11 02:53:37;;;;;;;;;4.00;4.00;;;;;;;;5189172;28;8959;-67
2022/05/11 02:56:08;;;;;;;;;14.00;13.80;;;;;;;;5188377;28;8778;-67
2022/05/11 02:58:58;;;;;;;;;8.40;8.40;;;;;;;;5192814;28;8981;-68
2022/05/11 03:01:29;;;;;;;;;7.80;7.80;;;;;;;;5188134;28;8799;-68
2022/05/11 03:04:18;;;;;;;;;8.00;8.00;;;;;;;;5189587;28;8813;-67
2022/05/11 03:06:49;;;;;;;;;6.40;6.40;;;;;;;;5170737;28;8800;-70
2022/05/11 03:09:20;;;;;;;;;24.40;22.80;;;;;;;;5190457;28;8789;-69
2022/05/11 03:11:52;;;;;;;;;3.60;3.60;;;;;;;;5174014;28;8797;-68
2022/05/11 03:14:23;;;;;;;;;2.60;2.60;;;;;;;;5190006;28;8824;-69
2022/05/11 03:16:54;;;;;;;;;66.25;47.00;;;;;;;;5190369;28;8797;-69
2022/05/11 03:19:26;;;;;;;;;1.80;1.80;;;;;;;;5197346;28;11468;-67
2022/05/11 03:21:57;;;;;;;;;6.00;6.00;;;;;;;;5190059;28;8789;-67
2022/05/11 03:24:28;;;;;;;;;3.60;3.40;;;;;;;;5174123;28;8797;-68
2022/05/11 03:26:59;;;;;;;;;8.40;8.40;;;;;;;;5189839;28;8829;-68
2022/05/11 03:29:31;;;;;;;;;10.60;10.60;;;;;;;;5205395;28;8819;-68
2022/05/11 03:34:52;;;;;;;;;34.60;33.00;;;;;;;;5197794;28;8791;-68
2022/05/11 03:37:23;;;;;;;;;7.00;7.00;;;;;;;;5186185;28;8779;-68
2022/05/11 03:39:54;;;;;;;;;9.40;9.20;;;;;;;;5202323;28;8834;-69
2022/05/11 03:42:29;;;;;;;;;14.60;14.60;;;;;;;;5186982;28;8767;-67
2022/05/11 03:45:20;;;;;;;;;9.00;9.00;;;;;;;;5169520;28;8810;-67
2022/05/11 03:47:52;;;;;;;;;5.00;5.00;;;;;;;;5169454;28;8771;-67
2022/05/11 03:50:25;;;;;;;;;7.00;7.00;;;;;;;;5169684;28;8779;-67
2022/05/11 03:52:57;;;;;;;;;8.20;8.20;;;;;;;;5169167;28;8831;-68
2022/05/11 03:55:28;;;;;;;;;9.00;9.00;;;;;;;;5189166;28;8805;-68
2022/05/11 03:58:00;;;;;;;;;10.20;10.20;;;;;;;;5188462;28;8823;-66
2022/05/11 04:00:32;;;;;;;;;12.80;12.80;;;;;;;;5205510;28;8780;-69
2022/05/11 04:03:21;;;;;;;;;9.00;9.00;;;;;;;;5171675;28;8803;-68
2022/05/11 04:05:52;;;;;;;;;10.40;10.40;;;;;;;;5153025;28;8787;-67
2022/05/11 04:08:42;;;;;;;;;6.60;6.60;;;;;;;;5169177;28;8865;-67
2022/05/11 04:11:13;;;;;;;;;6.20;6.20;;;;;;;;5186666;28;8783;-67
2022/05/11 04:13:44;;;;;;;;;31.25;29.75;;;;;;;;5158837;28;8779;-67
2022/05/11 04:16:33;;;;;;;;;4.60;4.60;;;;;;;;5169123;28;9486;-67
2022/05/11 04:19:04;;;;;;;;;7.80;7.80;;;;;;;;5186343;28;9565;-67
2022/05/11 04:21:35;;;;;;;;;7.00;7.00;;;;;;;;5185092;28;8767;-68
2022/05/11 04:24:06;;;;;;;;;8.60;8.60;;;;;;;;5168719;28;11430;-68
2022/05/11 04:26:37;;;;;;;;;8.00;8.00;;;;;;;;5184531;28;8858;-68
2022/05/11 04:29:26;;;;;;;;;9.60;9.60;;;;;;;;5204716;28;8777;-67
2022/05/11 04:31:58;;;;;;;;;4.80;4.80;;;;;;;;5173240;28;8811;-70
2022/05/11 04:34:47;;;;;;;;;4.80;4.80;;;;;;;;5168873;28;8902;-70
2022/05/11 04:37:18;;;;;;;;;5.80;5.80;;;;;;;;5168664;28;8811;-68
2022/05/11 04:39:49;;;;;;;;;6.00;6.00;;;;;;;;5180876;28;8837;-69
2022/05/11 04:42:21;;;;;;;;;11.80;11.80;;;;;;;;5168847;28;8786;-69
2022/05/11 04:44:55;;;;;;;;;7.20;7.20;;;;;;;;5201229;28;8852;-68
2022/05/11 04:47:44;;;;;;;;;7.00;7.00;;;;;;;;5172176;28;8807;-72
2022/05/11 04:50:17;;;;;;;;;4.00;4.00;;;;;;;;5194451;28;8830;-69
2022/05/11 04:52:48;;;;;;;;;4.20;4.20;;;;;;;;5226833;28;8807;-68
2022/05/11 04:55:18;;;;;;;;;4.75;4.75;;;;;;;;5208963;28;8825;-68
2022/05/11 04:57:50;;;;;;;;;8.60;8.60;;;;;;;;5207686;28;8801;-69
2022/05/11 05:00:21;;;;;;;;;7.00;7.00;;;;;;;;5187066;28;9551;-70
2022/05/11 05:02:52;;;;;;;;;10.00;10.00;;;;;;;;5164821;28;8864;-70
2022/05/11 05:05:23;;;;;;;;;9.40;9.40;;;;;;;;5161051;28;8825;-69
2022/05/11 05:07:54;;;;;;;;;9.60;9.40;;;;;;;;5160774;28;8815;-68
2022/05/11 05:10:25;;;;;;;;;9.25;9.25;;;;;;;;5165918;28;9543;-69
2022/05/11 05:13:01;;;;;;;;;9.40;9.40;;;;;;;;5166003;28;11450;-68
2022/05/11 05:15:33;;;;;;;;;21.00;21.00;;;;;;;;5166166;28;8783;-69
2022/05/11 05:18:06;;;;;;;;;14.80;14.80;;;;;;;;5149554;28;8811;-68
2022/05/11 05:20:38;;;;;;;;;10.20;9.80;;;;;;;;5166248;28;8806;-68
2022/05/11 05:23:09;;;;;;;;;17.20;17.20;;;;;;;;5184518;28;8922;-69
2022/05/11 05:25:40;;;;;;;;;11.40;11.40;;;;;;;;5184323;28;8817;-69
2022/05/11 05:31:08;;;;;;;;;14.60;14.60;;;;;;;;5198761;28;9558;-69
2022/05/11 05:33:39;;;;;;;;;16.00;16.00;;;;;;;;5149850;28;8929;-69
2022/05/11 05:36:30;;;;;;;;;9.40;9.40;;;;;;;;5165820;28;9584;-70
2022/05/11 05:39:02;;;;;;;;;12.40;11.40;;;;;;;;5165136;28;8826;-69
2022/05/11 05:41:34;;;;;;;;;15.60;15.60;;;;;;;;5193396;28;8797;-69
2022/05/11 05:44:06;;;;;;;;;20.60;20.60;;;;;;;;5179313;28;8800;-70
2022/05/11 05:46:38;;;;;;;;;22.60;22.60;;;;;;;;5170251;28;8789;-70
2022/05/11 05:49:28;;;;;;;;;14.00;14.00;;;;;;;;5190219;28;8777;-69
2022/05/11 05:52:01;;;;;;;;;6.40;6.40;;;;;;;;5188533;28;8753;-69
2022/05/11 05:54:32;;;;;;;;;9.20;9.20;;;;;;;;5205190;28;8777;-69
2022/05/11 05:57:03;;;;;;;;;6.40;6.40;;;;;;;;5176095;28;8807;-68
2022/05/11 05:59:53;;;;;;;;;9.60;9.60;;;;;;;;5184586;28;8811;-68
2022/05/11 06:02:24;;;;;;;;;12.00;12.00;;;;;;;;5173092;28;8899;-68
2022/05/11 06:04:55;;;;;;;;;22.00;19.50;;;;;;;;5187486;28;8978;-70
2022/05/11 06:07:26;;;;;;;;;15.20;15.20;;;;;;;;5187376;28;11414;-69
2022/05/11 06:09:57;;;;;;;;;15.00;14.60;;;;;;;;5187539;28;8773;-69
2022/05/11 06:12:28;;;;;;;;;13.75;12.50;;;;;;;;5187487;28;8793;-70
2022/05/11 06:14:59;;;;;;;;;11.40;11.40;;;;;;;;5205444;28;8792;-70
2022/05/11 06:17:32;;;;;;;;;6.80;6.80;;;;;;;;5179841;28;8799;-70
2022/05/11 06:20:04;;;;;;;;;10.00;10.00;;;;;;;;5167612;28;8826;-70
2022/05/11 06:22:53;;;;;;;;;13.40;13.40;;;;;;;;5188702;28;8768;-70
2022/05/11 06:25:24;;;;;;;;;8.20;8.20;;;;;;;;5203823;28;8862;-70
2022/05/11 06:27:56;;;;;;;;;14.60;14.40;;;;;;;;5172112;28;8775;-70
2022/05/11 06:30:28;;;;;;;;;11.80;11.80;;;;;;;;5209146;28;8799;-70
2022/05/11 06:33:00;;;;;;;;;11.40;11.40;;;;;;;;5190630;28;8800;-69
2022/05/11 06:35:31;;;;;;;;;14.40;14.40;;;;;;;;5202754;28;8804;-68
2022/05/11 06:38:03;;;;;;;;;10.75;10.75;;;;;;;;5189956;28;8818;-67
2022/05/11 06:40:35;;;;;;;;;24.60;24.00;;;;;;;;5186488;28;8799;-68
2022/05/11 06:43:06;;;;;;;;;21.80;20.40;;;;;;;;5190482;28;8832;-68
2022/05/11 06:45:37;;;;;;;;;5.50;5.50;;;;;;;;5186999;28;8804;-70
2022/05/11 06:48:08;;;;;;;;;9.67;8.67;;;;;;;;5199606;28;8850;-67
2022/05/11 06:50:39;;;;;;;;;11.00;11.00;;;;;;;;5208378;28;9827;-66
2022/05/11 06:53:11;;;;;;;;;14.33;14.33;;;;;;;;5207746;28;8824;-67
2022/05/11 07:01:41;;;;;;;;;5.00;5.00;;;;;;;;5208545;28;8805;-70
2022/05/11 07:04:12;;;;;;;;;11.25;11.25;;;;;;;;5203226;28;8965;-70
2022/05/11 07:06:43;;;;;;;;;8.50;8.50;;;;;;;;5189064;28;11053;-70
2022/05/11 07:09:14;;;;;;;;;14.50;14.50;;;;;;;;5194708;28;8821;-68
2022/05/11 07:14:35;;;;;;;;;3.25;3.25;;;;;;;;5185950;28;12391;-68
2022/05/11 07:17:06;;;;;;;;;6.00;6.00;;;;;;;;5169750;28;8806;-69
2022/05/11 07:19:42;;;;;;;;;9.00;9.00;;;;;;;;5170056;28;8820;-68
2022/05/11 07:22:13;;;;;;;;;13.00;13.00;;;;;;;;5153667;28;8921;-68
2022/05/11 07:24:44;;;;;;;;;13.40;13.40;;;;;;;;5169772;28;8962;-70
2022/05/11 07:27:17;;;;;;;;;13.00;13.00;;;;;;;;5169579;28;9676;-68
2022/05/11 07:29:49;;;;;;;;;11.75;9.25;;;;;;;;5169663;28;8925;-67
2022/05/11 07:32:27;;;;;;;;;12.00;11.80;;;;;;;;5171629;28;8793;-67
2022/05/11 07:34:58;;;;;;;;;11.25;11.25;;;;;;;;5190036;28;8785;-67
2022/05/11 07:37:29;;;;;;;;;13.33;13.33;;;;;;;;5173416;28;8813;-68
2022/05/11 07:40:00;;;;;;;;;12.75;12.75;;;;;;;;5186473;28;10736;-70
2022/05/11 07:42:31;;;;;;;;;14.20;14.20;;;;;;;;5188259;28;8801;-69
2022/05/11 07:45:03;;;;;;;;;11.80;11.60;;;;;;;;5185019;28;8861;-69
2022/05/11 07:47:34;;;;;;;;;17.00;17.00;;;;;;;;5167590;28;8799;-70
2022/05/11 07:50:06;;;;;;;;;17.25;17.00;;;;;;;;5167762;28;8825;-69
2022/05/11 07:52:37;;;;;;;;;4.60;4.60;;;;;;;;5195730;28;12405;-69
2022/05/11 07:55:08;;;;;;;;;11.00;11.00;;;;;;;;5171742;28;9508;-70
2022/05/11 08:00:29;;;;;;;;;16.00;16.00;;;;;;;;5170880;28;8891;-68
2022/05/11 08:03:00;;;;;;;;;11.50;11.50;;;;;;;;5170868;28;8902;-69
2022/05/11 08:05:32;;;;;;;;;7.33;7.00;;;;;;;;5187779;28;9421;-69
2022/05/11 08:08:05;;;;;;;;;10.50;10.50;;;;;;;;5187561;28;11437;-69
2022/05/11 08:10:37;;;;;;;;;10.75;10.75;;;;;;;;5204676;28;8800;-68
2022/05/11 08:13:28;;;;;;;;;5.75;5.75;;;;;;;;5190305;28;8851;-69
2022/05/11 08:16:00;;;;;;;;;10.25;10.25;;;;;;;;5187134;28;9578;-70
2022/05/11 08:18:31;;;;;;;;;6.75;6.75;;;;;;;;5201852;28;8832;-69
2022/05/11 08:21:02;;;;;;;;;12.75;12.25;;;;;;;;5187916;28;8801;-69
2022/05/11 08:23:33;;;;;;;;;13.50;12.75;;;;;;;;5188400;28;8823;-71
2022/05/11 08:26:04;;;;;;;;;8.50;8.50;;;;;;;;5186471;28;9716;-68
2022/05/11 08:28:35;;;;;;;;;10.50;10.00;;;;;;;;5203457;28;8822;-68
2022/05/11 08:34:14;;;;;;;;;7.75;7.75;;;;;;;;5218512;28;8813;-69
2022/05/11 08:36:45;;;;;;;;;3.33;3.33;;;;;;;;5206796;28;8765;-69
2022/05/11 08:39:16;;;;;;;;;3.50;3.50;;;;;;;;5206333;28;9810;-69
2022/05/11 08:42:05;;;;;;;;;8.50;8.50;;;;;;;;5191355;28;8765;-70
2022/05/11 08:44:41;;;;;;;;;13.50;13.50;;;;;;;;5198294;28;8820;-70
2022/05/11 08:47:19;;;;;;;;;6.00;6.00;;;;;;;;5199197;28;9515;-70
2022/05/11 08:49:52;;;;;;;;;7.50;7.50;;;;;;;;5207444;28;8769;-70
2022/05/11 08:52:29;;;;;;;;;11.75;11.75;;;;;;;;5208821;28;8872;-69
2022/05/11 08:55:11;;;;;;;;;11.00;11.00;;;;;;;;5208807;28;8775;-70
2022/05/11 08:57:42;;;;;;;;;5.50;5.00;;;;;;;;5192562;28;8787;-70
2022/05/11 09:00:14;;;;;;;;;13.00;12.33;;;;;;;;5199220;28;8917;-70
2022/05/11 09:02:48;;;;;;;;;20.20;20.20;;;;;;;;5205922;28;10651;-69
2022/05/11 09:05:21;;;;;;;;;10.00;9.75;;;;;;;;5191179;28;8905;-69
2022/05/11 09:07:54;;;;;;;;;11.75;11.75;;;;;;;;5177742;28;8816;-70
2022/05/11 09:10:26;;;;;;;;;11.75;11.75;;;;;;;;5155612;28;8824;-70
2022/05/11 09:13:16;;;;;;;;;8.75;8.75;;;;;;;;5174300;28;8785;-70
2022/05/11 09:15:53;;;;;;;;;6.75;6.75;;;;;;;;5171316;28;8832;-69
2022/05/11 09:18:30;;;;;;;;;10.50;10.50;;;;;;;;5186640;28;8821;-69
2022/05/11 09:21:05;;;;;;;;;8.50;8.50;;;;;;;;5161548;28;8787;-69
2022/05/11 09:23:38;;;;;;;;;11.25;11.25;;;;;;;;5184875;28;8787;-69
2022/05/11 09:26:16;;;;;;;;;13.25;13.25;;;;;;;;5167176;28;8827;-70
2022/05/11 09:28:47;;;;;;;;;16.20;16.20;;;;;;;;5168119;28;8787;-69
2022/05/11 09:31:25;;;;;;;;;13.00;13.00;;;;;;;;5226290;28;8818;-68
2022/05/11 09:34:03;;;;;;;;;8.00;8.00;;;;;;;;5192019;28;8795;-69
2022/05/11 09:36:36;;;;;;;;;15.40;15.40;;;;;;;;5208173;28;8793;-69
2022/05/11 09:39:13;;;;;;;;;14.25;12.75;;;;;;;;5225653;28;8825;-70
2022/05/11 09:41:49;;;;;;;;;14.00;14.00;;;;;;;;5191874;28;9466;-70
2022/05/11 09:44:21;;;;;;;;;12.00;12.00;;;;;;;;5169272;28;8921;-70
2022/05/11 09:46:53;;;;;;;;;14.00;14.00;;;;;;;;5171500;28;8937;-69
2022/05/11 09:49:43;;;;;;;;;6.20;6.20;;;;;;;;5174147;28;8805;-70
2022/05/11 09:52:26;;;;;;;;;15.75;15.75;;;;;;;;5170646;28;8820;-70
2022/05/11 09:54:58;;;;;;;;;6.50;6.50;;;;;;;;5154993;28;8788;-70
2022/05/11 09:57:29;;;;;;;;;16.40;16.20;;;;;;;;5187075;28;8785;-70
2022/05/11 10:00:26;;;;;;;;;7.25;7.25;;;;;;;;5205088;28;8835;-69
2022/05/11 10:02:58;;;;;;;;;12.80;12.80;;;;;;;;5187158;28;8828;-71
2022/05/11 10:05:32;;;;;;;;;12.75;12.75;;;;;;;;5184746;28;8797;-70
2022/05/11 10:08:22;;;;;;;;;13.00;13.00;;;;;;;;5167080;28;8803;-70
2022/05/11 10:11:11;;;;;;;;;13.75;13.00;;;;;;;;5184606;28;8818;-69
2022/05/11 10:13:45;;;;;;;;;13.67;13.67;;;;;;;;5197889;28;8799;-69
2022/05/11 10:22:30;;;;;;;;;14.75;14.75;;;;;;;;5207308;28;8876;-72
2022/05/11 10:25:16;;;;;;;;;30.00;27.20;;;;;;;;5156730;28;9565;-70
2022/05/11 10:27:47;;;;;;;;;8.50;8.00;;;;;;;;5186975;28;8967;-68
2022/05/11 10:30:22;;;;;;;;;17.00;17.00;;;;;;;;5199061;28;9653;-68
2022/05/11 10:33:12;;;;;;;;;19.75;19.75;;;;;;;;5169987;28;8791;-70
2022/05/11 10:35:47;;;;;;;;;18.00;18.00;;;;;;;;5196338;28;8783;-69
2022/05/11 10:38:37;;;;;;;;;15.00;15.00;;;;;;;;5232145;28;8767;-68
2022/05/11 10:41:26;;;;;;;;;17.25;17.00;;;;;;;;5234502;28;8795;-69
2022/05/11 10:44:00;;;;;;;;;11.75;11.75;;;;;;;;5200609;28;8777;-69
2022/05/11 10:46:55;;;;;;;;;24.00;23.50;;;;;;;;5171452;28;8790;-70
2022/05/11 10:49:52;;;;;;;;;20.25;20.25;;;;;;;;5160791;28;8781;-72
2022/05/11 10:52:23;;;;;;;;;19.50;19.50;;;;;;;;5171418;28;8896;-69
2022/05/11 10:54:54;;;;;;;;;17.25;16.50;;;;;;;;5204664;28;8905;-69
2022/05/11 10:57:44;;;;;;;;;17.00;16.75;;;;;;;;5169984;28;8813;-69
2022/05/11 11:00:24;;;;;;;;;13.50;13.50;;;;;;;;5182244;28;8839;-69
2022/05/11 11:03:18;;;;;;;;;14.75;14.75;;;;;;;;5201238;28;8825;-67
2022/05/11 11:07:11;;;;;;;;;19.00;19.00;;;;;;;;5170922;28;8801;-68
2022/05/11 11:08:53;;;;;;;;;19.00;19.00;;;;;;;;5190631;28;8801;-68
2022/05/11 11:11:34;;;;;;;;;18.50;18.50;;;;;;;;5157868;28;8781;-69
2022/05/11 11:14:07;;;;;;;;;21.25;21.00;;;;;;;;5190538;28;8777;-67
2022/05/11 11:16:40;;;;;;;;;6.25;6.25;;;;;;;;5206545;28;8792;-68
2022/05/11 11:19:11;;;;;;;;;17.75;17.75;;;;;;;;5170249;28;8813;-68
2022/05/11 11:21:43;;;;;;;;;16.67;16.67;;;;;;;;5202606;28;9504;-68
2022/05/11 11:24:14;;;;;;;;;18.00;17.75;;;;;;;;5204595;28;8783;-69
2022/05/11 11:26:50;;;;;;;;;13.40;13.40;;;;;;;;5202495;28;9588;-69
2022/05/11 11:29:23;;;;;;;;;16.50;16.50;;;;;;;;5181462;28;8813;-69
2022/05/11 11:32:00;;;;;;;;;18.75;18.00;;;;;;;;5155946;28;8829;-70
2022/05/11 11:34:51;;;;;;;;;6.75;6.75;;;;;;;;5191140;28;8809;-70
2022/05/11 11:37:25;;;;;;;;;23.75;23.25;;;;;;;;5188014;28;8951;-70
2022/05/11 11:40:14;;;;;;;;;19.00;18.75;;;;;;;;5190734;28;8813;-68
2022/05/11 11:42:46;;;;;;;;;20.33;20.33;;;;;;;;5205380;28;8883;-69
2022/05/11 11:45:26;;;;;;;;;21.75;21.75;;;;;;;;5152490;28;9659;-69
2022/05/11 11:48:03;;;;;;;;;19.75;19.75;;;;;;;;5151805;28;8799;-70
2022/05/11 11:50:43;;;;;;;;;18.25;18.25;;;;;;;;5151887;28;9560;-71
2022/05/11 11:53:22;;;;;;;;;22.60;21.80;;;;;;;;5151491;28;8888;-70
2022/05/11 11:55:54;;;;;;;;;20.00;19.00;;;;;;;;5135627;28;8841;-69
2022/05/11 11:58:29;;;;;;;;;20.00;19.00;;;;;;;;5189839;28;8813;-68
2022/05/11 12:01:04;;;;;;;;;19.50;19.50;;;;;;;;5180537;28;8924;-70
2022/05/11 12:03:37;;;;;;;;;46.80;40.00;;;;;;;;5186843;28;8797;-69
2022/05/11 12:17:35;;;;;;;;;20.80;20.20;;;;;;;;5201075;28;8793;-69
2022/05/11 12:20:14;;;;;;;;;23.40;22.60;;;;;;;;5184461;28;8839;-70
2022/05/11 12:22:57;;;;;;;;;23.60;22.80;;;;;;;;5187481;28;8806;-70
2022/05/11 12:25:33;;;;;;;;;21.60;21.60;;;;;;;;5199861;28;8931;-69
2022/05/11 12:28:39;;;;;;;;;23.20;23.20;;;;;;;;5170107;28;8820;-70
2022/05/11 12:31:25;;;;;;;;;23.60;23.60;;;;;;;;5182141;28;8824;-69
2022/05/11 12:33:56;;;;;;;;;23.80;23.00;;;;;;;;5185487;28;8767;-72
2022/05/11 12:36:37;;;;;;;;;25.00;25.00;;;;;;;;5204918;28;9498;-71
2022/05/11 12:39:08;;;;;;;;;20.00;19.40;;;;;;;;5187219;28;11163;-71
2022/05/11 12:41:42;;;;;;;;;23.80;23.80;;;;;;;;5202776;28;8864;-71
2022/05/11 12:44:14;;;;;;;;;21.80;21.80;;;;;;;;5186728;28;8778;-70
2022/05/11 12:46:45;;;;;;;;;23.80;22.20;;;;;;;;5186466;28;8836;-71
2022/05/11 12:49:19;;;;;;;;;23.40;23.40;;;;;;;;5204569;28;8806;-71
2022/05/11 12:51:52;;;;;;;;;23.40;23.40;;;;;;;;5170820;28;8799;-72
2022/05/11 12:54:25;;;;;;;;;30.00;28.20;;;;;;;;5170109;28;8783;-71
2022/05/11 12:57:17;;;;;;;;;31.00;29.00;;;;;;;;5204921;28;8864;-72
2022/05/11 12:59:53;;;;;;;;;116.67;110.33;;;;;;;;5186379;28;8974;-70
2022/05/11 13:02:27;;;;;;;;;55.80;47.00;;;;;;;;5186872;28;8863;-69
2022/05/11 13:04:59;;;;;;;;;33.40;32.00;;;;;;;;5185703;28;8810;-69
2022/05/11 13:07:35;;;;;;;;;27.20;27.00;;;;;;;;5186830;28;8807;-69
2022/05/11 13:10:07;;;;;;;;;31.80;31.00;;;;;;;;5186636;28;8805;-70
2022/05/11 13:12:39;;;;;;;;;27.60;27.40;;;;;;;;5186084;28;8795;-69
2022/05/11 13:15:10;;;;;;;;;25.20;25.20;;;;;;;;5204137;28;8782;-69
2022/05/11 13:17:46;;;;;;;;;32.80;31.40;;;;;;;;5202471;28;8803;-68
2022/05/11 13:20:19;;;;;;;;;37.20;33.00;;;;;;;;5156469;28;8882;-71
2022/05/11 13:23:00;;;;;;;;;34.20;32.40;;;;;;;;5165918;28;8801;-71
2022/05/11 13:25:51;;;;;;;;;32.20;29.40;;;;;;;;5183199;28;8817;-69
2022/05/11 13:28:25;;;;;;;;;40.80;35.60;;;;;;;;5189223;28;8832;-70
2022/05/11 13:31:32;;;;;;;;;40.40;36.40;;;;;;;;5209246;28;8801;-70
2022/05/11 13:34:06;;;;;;;;;36.80;34.80;;;;;;;;5173901;28;9476;-70
2022/05/11 13:36:41;;;;;;;;;39.00;33.80;;;;;;;;5190001;28;8780;-72
2022/05/11 13:39:13;;;;;;;;;38.80;35.20;;;;;;;;5192677;28;8832;-72
2022/05/11 13:41:48;;;;;;;;;39.20;36.20;;;;;;;;5150429;28;8855;-70
2022/05/11 13:44:26;;;;;;;;;38.40;34.60;;;;;;;;5180573;28;8829;-71
2022/05/11 13:49:48;;;;;;;;;38.80;35.00;;;;;;;;5187635;28;8798;-69
2022/05/11 13:52:36;;;;;;;;;36.20;34.20;;;;;;;;5204995;28;8779;-71
2022/05/11 13:55:07;;;;;;;;;42.00;37.20;;;;;;;;5170783;28;8844;-71
2022/05/11 13:57:39;;;;;;;;;41.00;37.00;;;;;;;;5196824;28;8808;-71
2022/05/11 14:00:10;;;;;;;;;40.20;35.80;;;;;;;;5167155;28;9561;-70
2022/05/11 14:02:44;;;;;;;;;44.60;39.20;;;;;;;;5186337;28;8797;-71
2022/05/11 14:05:16;;;;;;;;;107.00;99.40;;;;;;;;5170352;28;8783;-71
2022/05/11 14:07:50;;;;;;;;;48.40;41.00;;;;;;;;5187383;28;8814;-70
2022/05/11 14:10:21;;;;;;;;;46.50;39.75;;;;;;;;5187349;28;8925;-70
2022/05/11 14:12:52;;;;;;;;;43.20;38.40;;;;;;;;5186298;28;9339;-71
2022/05/11 14:15:25;;;;;;;;;40.80;36.20;;;;;;;;5184349;28;8765;-69
2022/05/11 14:17:57;;;;;;;;;41.40;37.00;;;;;;;;5166516;28;8796;-70
2022/05/11 14:20:28;;;;;;;;;40.60;35.80;;;;;;;;5184269;28;8816;-70
2022/05/11 14:22:59;;;;;;;;;44.20;37.20;;;;;;;;5200864;28;8790;-70
2022/05/11 14:25:30;;;;;;;;;48.60;41.60;;;;;;;;5170592;28;8814;-70
2022/05/11 14:28:01;;;;;;;;;45.00;38.75;;;;;;;;5205969;28;8836;-70
2022/05/11 14:30:33;;;;;;;;;48.00;41.50;;;;;;;;5190730;28;11512;-70
2022/05/11 14:33:04;;;;;;;;;46.60;39.20;;;;;;;;5207253;28;11535;-69
2022/05/11 14:35:35;;;;;;;;;50.00;42.25;;;;;;;;5188990;28;8779;-70
2022/05/11 14:38:06;;;;;;;;;47.00;40.50;;;;;;;;5185133;28;8879;-69
2022/05/11 14:40:37;;;;;;;;;51.75;43.00;;;;;;;;5165255;28;8858;-71
2022/05/11 14:43:08;;;;;;;;;50.60;42.20;;;;;;;;5209996;28;11522;-70
2022/05/11 14:45:40;;;;;;;;;42.80;37.80;;;;;;;;5229633;28;8789;-69
2022/05/11 14:48:38;;;;;;;;;48.40;42.00;;;;;;;;5160063;28;8857;-70
2022/05/11 14:51:11;;;;;;;;;52.00;43.60;;;;;;;;5183937;28;8795;-66
2022/05/11 14:53:45;;;;;;;;;48.00;40.00;;;;;;;;5154046;28;8782;-70
2022/05/11 14:56:34;;;;;;;;;54.00;45.20;;;;;;;;5186854;28;8840;-68
2022/05/11 15:01:59;;;;;;;;;57.00;47.40;;;;;;;;5194378;28;9715;-70
2022/05/11 15:04:34;;;;;;;;;53.20;43.20;;;;;;;;5194937;28;8787;-70
2022/05/11 15:07:07;;;;;;;;;56.80;47.40;;;;;;;;5211065;28;8779;-68
2022/05/11 15:09:39;;;;;;;;;51.80;43.40;;;;;;;;5228678;28;8909;-67
2022/05/11 15:14:59;;;;;;;;;25.80;25.60;;;;;;;;5229011;28;8779;-69
2022/05/11 15:17:30;;;;;;;;;26.25;25.25;;;;;;;;5209362;28;8849;-69
2022/05/11 15:20:03;;;;;;;;;25.75;25.50;;;;;;;;5190019;28;8834;-69
2022/05/11 15:22:34;;;;;;;;;22.40;22.40;;;;;;;;5207305;28;8801;-70
2022/05/11 15:25:05;;;;;;;;;20.00;20.00;;;;;;;;5206439;28;9472;-70
2022/05/11 15:27:36;;;;;;;;;18.60;18.60;;;;;;;;5207517;28;11416;-69
2022/05/11 15:30:10;;;;;;;;;22.40;22.20;;;;;;;;5199699;28;8866;-68
2022/05/11 15:32:41;;;;;;;;;21.40;21.00;;;;;;;;5169599;28;8868;-71
2022/05/11 15:35:13;;;;;;;;;19.40;19.40;;;;;;;;5169324;28;8799;-69
2022/05/11 15:37:46;;;;;;;;;13.00;12.80;;;;;;;;5170587;28;8795;-69
2022/05/11 15:40:17;;;;;;;;;20.00;19.40;;;;;;;;5185648;28;8819;-68
2022/05/11 15:42:48;;;;;;;;;17.60;17.60;;;;;;;;5169528;28;8853;-67
2022/05/11 15:45:21;;;;;;;;;12.80;12.40;;;;;;;;5169156;28;8807;-70
2022/05/11 15:47:53;;;;;;;;;13.60;13.20;;;;;;;;5183973;28;8801;-69
2022/05/11 15:50:24;;;;;;;;;18.00;16.20;;;;;;;;5189444;28;8834;-69
2022/05/11 15:52:55;;;;;;;;;15.20;15.20;;;;;;;;5185176;28;8898;-70
2022/05/11 15:55:29;;;;;;;;;21.00;21.00;;;;;;;;5206386;28;8795;-69
2022/05/11 15:58:00;;;;;;;;;14.00;14.00;;;;;;;;5167894;28;8936;-68
2022/05/11 16:00:31;;;;;;;;;7.60;7.60;;;;;;;;5188746;28;8835;-70
2022/05/11 16:03:02;;;;;;;;;13.00;12.50;;;;;;;;5195853;28;9574;-70
2022/05/11 16:05:54;;;;;;;;;20.60;20.60;;;;;;;;5192202;28;9578;-69
2022/05/11 16:08:25;;;;;;;;;10.60;10.60;;;;;;;;5206832;28;9501;-69
2022/05/11 16:10:57;;;;;;;;;9.60;9.60;;;;;;;;5185506;28;8889;-67
2022/05/11 16:13:29;;;;;;;;;12.80;12.00;;;;;;;;5185301;28;9507;-69
2022/05/11 16:16:00;;;;;;;;;10.00;10.00;;;;;;;;5184911;28;8818;-69